Time,TemperatureF,DewpointF,PressureIn,WindDirection,WindDirectionDegrees,WindSpeedMPH,WindSpeedGustMPH,Humidity,HourlyPrecipIn,Conditions,Clouds,dailyrainin,SoftwareType,DateUTC
2013-08-31 00:02:00,67.8,61.8,29.87,NE,45,0.0,0.0,81,0.00,,,0.00,WUHU216HW,2013-08-31 05:02:00,
2013-08-31 00:07:00,67.8,62.1,29.88,NE,45,0.0,0.0,82,0.00,,,0.00,WUHU216HW,2013-08-31 05:07:00,
2013-08-31 00:12:00,67.6,61.9,29.87,ENE,68,0.0,0.0,82,0.00,,,0.00,WUHU216HW,2013-08-31 05:12:00,
2013-08-31 00:17:00,67.6,61.9,29.88,NNE,23,0.0,0.0,82,0.00,,,0.00,WUHU216HW,2013-08-31 05:17:00,
2013-08-31 00:22:00,67.4,61.8,29.88,NE,45,0.0,0.0,82,0.00,,,0.00,WUHU216HW,2013-08-31 05:22:00,
2013-08-31 00:27:00,67.2,61.6,29.88,NNE,23,0.0,0.0,82,0.00,,,0.00,WUHU216HW,2013-08-31 05:27:00,
2013-08-31 00:32:00,67.1,61.7,29.87,NE,45,0.0,0.0,83,0.00,,,0.00,WUHU216HW,2013-08-31 05:32:00,
2013-08-31 00:37:00,67.1,61.7,29.87,NE,45,0.0,0.0,83,0.00,,,0.00,WUHU216HW,2013-08-31 05:37:00,
2013-08-31 00:42:00,67.1,61.7,29.88,NNE,23,0.0,0.0,83,0.00,,,0.00,WUHU216HW,2013-08-31 05:42:00,
2013-08-31 00:47:00,66.9,61.5,29.88,NNE,23,0.0,0.0,83,0.00,,,0.00,WUHU216HW,2013-08-31 05:47:00,
2013-08-31 00:52:00,66.3,61.0,29.88,NNE,23,0.0,0.0,83,0.00,,,0.00,WUHU216HW,2013-08-31 05:52:00,
2013-08-31 00:57:00,66.0,60.6,29.88,NNE,23,0.0,0.0,83,0.00,,,0.00,WUHU216HW,2013-08-31 05:57:00,
2013-08-31 01:02:00,66.0,60.6,29.88,NNE,23,0.0,0.0,83,0.00,,,0.00,WUHU216HW,2013-08-31 06:02:00,
2013-08-31 01:07:00,65.8,60.8,29.88,NE,45,0.0,0.0,84,0.00,,,0.00,WUHU216HW,2013-08-31 06:07:00,
2013-08-31 01:12:00,65.6,60.6,29.88,NE,45,0.0,0.0,84,0.00,,,0.00,WUHU216HW,2013-08-31 06:12:00,
2013-08-31 01:17:00,65.3,60.3,29.89,NE,45,0.0,0.0,84,0.00,,,0.00,WUHU216HW,2013-08-31 06:17:00,
2013-08-31 01:22:00,65.3,60.3,29.89,NE,45,0.0,0.0,84,0.00,,,0.00,WUHU216HW,2013-08-31 06:22:00,
2013-08-31 01:27:00,65.4,60.8,29.89,NE,45,0.0,0.0,85,0.00,,,0.00,WUHU216HW,2013-08-31 06:27:00,
2013-08-31 01:32:00,65.4,60.8,29.89,NNE,23,0.0,0.0,85,0.00,,,0.00,WUHU216HW,2013-08-31 06:32:00,
2013-08-31 01:37:00,65.6,60.9,29.89,NNE,23,0.0,0.0,85,0.00,,,0.00,WUHU216HW,2013-08-31 06:37:00,
2013-08-31 01:42:00,65.8,61.1,29.89,NNE,23,0.0,0.0,85,0.00,,,0.00,WUHU216HW,2013-08-31 06:42:00,
2013-08-31 01:47:00,65.4,60.8,29.89,NNE,23,0.0,0.0,85,0.00,,,0.00,WUHU216HW,2013-08-31 06:47:00,
2013-08-31 01:52:00,65.4,60.6,29.88,East,90,0.0,0.0,85,0.00,,,0.00,WUHU216HW,2013-08-31 06:52:00,
2013-08-31 01:57:00,65.4,61.1,29.88,NE,45,0.0,0.0,86,0.00,,,0.00,WUHU216HW,2013-08-31 06:57:00,
2013-08-31 02:02:00,65.6,61.3,29.88,ENE,68,0.0,0.0,86,0.00,,,0.00,WUHU216HW,2013-08-31 07:02:00,
2013-08-31 02:07:00,65.6,61.3,29.88,NE,45,0.0,0.0,86,0.00,,,0.00,WUHU216HW,2013-08-31 07:07:00,
2013-08-31 02:12:00,65.4,61.1,29.88,ENE,68,0.0,0.0,86,0.00,,,0.00,WUHU216HW,2013-08-31 07:12:00,
2013-08-31 02:17:00,65.3,60.9,29.88,NE,45,0.0,0.0,86,0.00,,,0.00,WUHU216HW,2013-08-31 07:17:00,
2013-08-31 02:22:00,65.1,60.8,29.88,NE,45,0.0,0.0,86,0.00,,,0.00,WUHU216HW,2013-08-31 07:22:00,
2013-08-31 02:27:00,65.1,61.1,29.87,ENE,68,0.0,0.0,87,0.00,,,0.00,WUHU216HW,2013-08-31 07:27:00,
2013-08-31 02:32:00,65.1,61.1,29.87,NE,45,0.0,0.0,87,0.00,,,0.00,WUHU216HW,2013-08-31 07:32:00,
2013-08-31 02:37:00,64.9,60.9,29.87,East,90,0.0,0.0,87,0.00,,,0.00,WUHU216HW,2013-08-31 07:37:00,
2013-08-31 02:42:00,64.9,60.9,29.87,NE,45,0.0,0.0,87,0.00,,,0.00,WUHU216HW,2013-08-31 07:42:00,
2013-08-31 02:47:00,64.9,60.9,29.87,NNE,23,0.0,0.0,87,0.00,,,0.00,WUHU216HW,2013-08-31 07:47:00,
2013-08-31 02:52:00,64.9,60.9,29.87,ENE,68,0.0,0.0,87,0.00,,,0.00,WUHU216HW,2013-08-31 07:52:00,
2013-08-31 02:57:00,64.9,60.9,29.87,ENE,68,0.0,0.0,87,0.00,,,0.00,WUHU216HW,2013-08-31 07:57:00,
2013-08-31 03:02:00,64.7,60.8,29.87,NE,45,0.0,0.0,87,0.00,,,0.00,WUHU216HW,2013-08-31 08:02:00,
2013-08-31 03:07:00,64.5,60.6,29.87,ENE,68,0.0,0.0,87,0.00,,,0.00,WUHU216HW,2013-08-31 08:07:00,
2013-08-31 03:12:00,64.5,60.9,29.87,NE,45,0.0,0.0,88,0.00,,,0.00,WUHU216HW,2013-08-31 08:12:00,
2013-08-31 03:17:00,64.5,60.9,29.88,NE,45,0.0,0.0,88,0.00,,,0.00,WUHU216HW,2013-08-31 08:17:00,
2013-08-31 03:22:00,64.5,60.9,29.88,NE,45,0.0,0.0,88,0.00,,,0.00,WUHU216HW,2013-08-31 08:22:00,
2013-08-31 03:27:00,64.5,60.9,29.88,ENE,68,0.0,0.0,88,0.00,,,0.00,WUHU216HW,2013-08-31 08:27:00,
2013-08-31 03:32:00,64.2,60.6,29.88,ENE,68,0.0,0.0,88,0.00,,,0.00,WUHU216HW,2013-08-31 08:32:00,
2013-08-31 03:37:00,64.0,60.4,29.87,ENE,68,0.0,0.0,88,0.00,,,0.00,WUHU216HW,2013-08-31 08:37:00,
2013-08-31 03:42:00,63.8,60.2,29.87,ENE,68,0.0,0.0,88,0.00,,,0.00,WUHU216HW,2013-08-31 08:42:00,
2013-08-31 03:47:00,63.5,59.9,29.87,ENE,68,0.0,0.0,88,0.00,,,0.00,WUHU216HW,2013-08-31 08:47:00,
2013-08-31 03:52:00,63.1,59.5,29.86,ENE,68,0.0,0.0,88,0.00,,,0.00,WUHU216HW,2013-08-31 08:52:00,
2013-08-31 03:57:00,63.1,59.5,29.86,ENE,68,0.0,0.0,88,0.00,,,0.00,WUHU216HW,2013-08-31 08:57:00,
2013-08-31 04:02:00,62.9,59.3,29.86,NE,45,0.0,0.0,88,0.00,,,0.00,WUHU216HW,2013-08-31 09:02:00,
2013-08-31 04:07:00,62.9,59.7,29.86,ENE,68,0.0,0.0,89,0.00,,,0.00,WUHU216HW,2013-08-31 09:07:00,
2013-08-31 04:12:00,62.9,59.7,29.86,ENE,68,0.0,0.0,89,0.00,,,0.00,WUHU216HW,2013-08-31 09:12:00,
2013-08-31 04:17:00,62.7,59.5,29.87,SE,135,0.0,0.0,89,0.00,,,0.00,WUHU216HW,2013-08-31 09:17:00,
2013-08-31 04:22:00,62.9,59.7,29.87,NE,45,0.0,0.0,89,0.00,,,0.00,WUHU216HW,2013-08-31 09:22:00,
2013-08-31 04:27:00,62.9,59.7,29.87,ENE,68,0.0,0.0,89,0.00,,,0.00,WUHU216HW,2013-08-31 09:27:00,
2013-08-31 04:32:00,62.9,59.7,29.87,ENE,68,0.0,0.0,89,0.00,,,0.00,WUHU216HW,2013-08-31 09:32:00,
2013-08-31 04:37:00,62.4,59.1,29.87,ENE,68,0.0,0.0,89,0.00,,,0.00,WUHU216HW,2013-08-31 09:37:00,
2013-08-31 04:42:00,62.2,59.0,29.87,ENE,68,0.0,0.0,89,0.00,,,0.00,WUHU216HW,2013-08-31 09:42:00,
2013-08-31 04:47:00,62.0,58.8,29.87,ENE,68,0.0,0.0,89,0.00,,,0.00,WUHU216HW,2013-08-31 09:47:00,
2013-08-31 04:52:00,61.8,58.6,29.88,NE,45,0.0,0.0,89,0.00,,,0.00,WUHU216HW,2013-08-31 09:52:00,
2013-08-31 04:57:00,61.8,58.6,29.88,NE,45,0.0,0.0,89,0.00,,,0.00,WUHU216HW,2013-08-31 09:57:00,
2013-08-31 05:02:00,61.8,58.6,29.88,NE,45,0.0,0.0,89,0.00,,,0.00,WUHU216HW,2013-08-31 10:02:00,
2013-08-31 05:07:00,61.8,58.6,29.88,NE,45,0.0,0.0,89,0.00,,,0.00,WUHU216HW,2013-08-31 10:07:00,
2013-08-31 05:12:00,61.8,58.6,29.87,NE,45,0.0,0.0,89,0.00,,,0.00,WUHU216HW,2013-08-31 10:12:00,
2013-08-31 05:17:00,61.7,58.4,29.87,NE,45,0.0,0.0,89,0.00,,,0.00,WUHU216HW,2013-08-31 10:17:00,
2013-08-31 05:22:00,61.5,58.2,29.87,ESE,113,0.0,0.0,89,0.00,,,0.00,WUHU216HW,2013-08-31 10:22:00,
2013-08-31 05:27:00,61.5,58.2,29.87,ESE,113,0.0,0.0,89,0.00,,,0.00,WUHU216HW,2013-08-31 10:27:00,
2013-08-31 05:32:00,61.5,58.2,29.87,East,90,0.0,0.0,89,0.00,,,0.00,WUHU216HW,2013-08-31 10:32:00,
2013-08-31 05:37:00,61.5,58.6,29.88,ESE,113,0.0,0.0,90,0.00,,,0.00,WUHU216HW,2013-08-31 10:37:00,
2013-08-31 05:42:00,61.5,58.6,29.87,East,90,0.0,0.0,90,0.00,,,0.00,WUHU216HW,2013-08-31 10:42:00,
2013-08-31 05:47:00,61.5,58.6,29.87,East,90,0.0,0.0,90,0.00,,,0.00,WUHU216HW,2013-08-31 10:47:00,
2013-08-31 05:52:00,61.5,58.6,29.87,East,90,0.0,0.0,90,0.00,,,0.00,WUHU216HW,2013-08-31 10:52:00,
2013-08-31 05:57:00,61.5,58.6,29.87,East,90,0.0,0.0,90,0.00,,,0.00,WUHU216HW,2013-08-31 10:57:00,
2013-08-31 06:02:00,61.5,58.6,29.87,East,90,0.0,0.0,90,0.00,,,0.00,WUHU216HW,2013-08-31 11:02:00,
2013-08-31 06:07:00,61.5,58.6,29.87,East,90,0.0,0.0,90,0.00,,,0.00,WUHU216HW,2013-08-31 11:07:00,
2013-08-31 06:12:00,61.3,58.4,29.87,East,90,0.0,0.0,90,0.00,,,0.00,WUHU216HW,2013-08-31 11:12:00,
2013-08-31 06:17:00,61.3,58.4,29.87,East,90,0.0,0.0,90,0.00,,,0.00,WUHU216HW,2013-08-31 11:17:00,
2013-08-31 06:22:00,61.1,58.2,29.87,East,90,0.0,0.0,90,0.00,,,0.00,WUHU216HW,2013-08-31 11:22:00,
2013-08-31 06:27:00,60.9,58.1,29.87,East,90,0.0,0.0,90,0.00,,,0.00,WUHU216HW,2013-08-31 11:27:00,
2013-08-31 06:32:00,61.1,58.2,29.87,ENE,68,0.0,0.0,90,0.00,,,0.00,WUHU216HW,2013-08-31 11:32:00,
2013-08-31 06:37:00,61.1,58.2,29.87,ENE,68,0.0,0.0,90,0.00,,,0.00,WUHU216HW,2013-08-31 11:37:00,
2013-08-31 06:42:00,61.1,58.2,29.87,ENE,68,0.0,0.0,90,0.00,,,0.00,WUHU216HW,2013-08-31 11:42:00,
2013-08-31 06:47:00,61.1,58.2,29.87,ENE,68,0.0,0.0,90,0.00,,,0.00,WUHU216HW,2013-08-31 11:47:00,
2013-08-31 06:52:00,61.1,58.5,29.87,ENE,68,0.0,0.0,91,0.00,,,0.00,WUHU216HW,2013-08-31 11:52:00,
2013-08-31 06:57:00,61.3,58.7,29.87,ENE,68,0.0,0.0,91,0.00,,,0.00,WUHU216HW,2013-08-31 11:57:00,
2013-08-31 07:02:00,61.3,58.7,29.87,ENE,68,0.0,0.0,91,0.00,,,0.00,WUHU216HW,2013-08-31 12:02:00,
2013-08-31 07:07:00,61.3,58.7,29.87,ENE,68,0.0,0.0,91,0.00,,,0.00,WUHU216HW,2013-08-31 12:07:00,
2013-08-31 07:12:00,61.3,58.7,29.87,ENE,68,0.0,0.0,91,0.00,,,0.00,WUHU216HW,2013-08-31 12:12:00,
2013-08-31 07:17:00,61.5,58.9,29.87,ESE,113,0.0,0.0,91,0.00,,,0.00,WUHU216HW,2013-08-31 12:17:00,
2013-08-31 07:22:00,61.8,59.2,29.87,SE,135,0.0,0.0,91,0.00,,,0.00,WUHU216HW,2013-08-31 12:22:00,
2013-08-31 07:27:00,62.4,59.8,29.86,ESE,113,0.0,0.0,91,0.00,,,0.00,WUHU216HW,2013-08-31 12:27:00,
2013-08-31 07:32:00,62.6,60.0,29.87,SE,135,0.0,0.0,91,0.00,,,0.00,WUHU216HW,2013-08-31 12:32:00,
2013-08-31 07:37:00,62.9,60.5,29.87,East,90,0.0,0.0,91,0.00,,,0.00,WUHU216HW,2013-08-31 12:37:00,
2013-08-31 07:42:00,63.5,61.1,29.86,ESE,113,0.0,0.0,92,0.00,,,0.00,WUHU216HW,2013-08-31 12:42:00,
2013-08-31 07:47:00,64.2,61.9,29.85,ESE,113,0.0,0.0,92,0.00,,,0.00,WUHU216HW,2013-08-31 12:47:00,
2013-08-31 07:52:00,64.9,62.5,29.86,ESE,113,0.0,0.0,92,0.00,,,0.00,WUHU216HW,2013-08-31 12:52:00,
2013-08-31 07:57:00,65.4,63.3,29.86,ESE,113,0.0,0.0,93,0.00,,,0.00,WUHU216HW,2013-08-31 12:57:00,
2013-08-31 08:02:00,66.7,64.5,29.86,ESE,113,0.0,0.0,93,0.00,,,0.00,WUHU216HW,2013-08-31 13:02:00,
2013-08-31 08:07:00,68.5,66.3,29.87,ESE,113,0.0,0.0,93,0.00,,,0.00,WUHU216HW,2013-08-31 13:07:00,
2013-08-31 08:12:00,69.0,66.9,29.87,ESE,113,0.0,0.0,93,0.00,,,0.00,WUHU216HW,2013-08-31 13:12:00,
2013-08-31 08:17:00,69.6,67.4,29.87,ESE,113,0.0,0.0,93,0.00,,,0.00,WUHU216HW,2013-08-31 13:17:00,
2013-08-31 08:22:00,70.3,68.1,29.87,ESE,113,0.0,0.0,93,0.00,,,0.00,WUHU216HW,2013-08-31 13:22:00,
2013-08-31 08:27:00,70.7,68.2,29.87,ESE,113,0.0,0.0,92,0.00,,,0.00,WUHU216HW,2013-08-31 13:27:00,
2013-08-31 08:32:00,70.8,68.1,29.87,ESE,113,0.0,0.0,91,0.00,,,0.00,WUHU216HW,2013-08-31 13:32:00,
2013-08-31 08:37:00,71.9,68.9,29.87,SE,135,0.0,0.0,90,0.00,,,0.00,WUHU216HW,2013-08-31 13:37:00,
2013-08-31 08:42:00,72.3,68.9,29.86,ESE,113,0.0,0.0,89,0.00,,,0.00,WUHU216HW,2013-08-31 13:42:00,
2013-08-31 08:47:00,73.0,68.9,29.86,ESE,113,0.0,0.0,87,0.00,,,0.00,WUHU216HW,2013-08-31 13:47:00,
2013-08-31 08:52:00,72.8,67.7,29.86,East,90,0.0,0.0,84,0.00,,,0.00,WUHU216HW,2013-08-31 13:52:00,
2013-08-31 08:57:00,73.4,68.2,29.86,SSE,158,0.0,0.0,84,0.00,,,0.00,WUHU216HW,2013-08-31 13:57:00,
2013-08-31 09:02:00,74.3,69.1,29.86,SE,135,0.0,0.0,84,0.00,,,0.00,WUHU216HW,2013-08-31 14:02:00,
2013-08-31 09:07:00,75.0,68.8,29.86,SE,135,0.0,0.0,81,0.00,,,0.00,WUHU216HW,2013-08-31 14:07:00,
2013-08-31 09:12:00,75.7,69.2,29.85,SE,135,0.0,0.0,80,0.00,,,0.00,WUHU216HW,2013-08-31 14:12:00,
2013-08-31 09:17:00,75.9,68.9,29.86,SE,135,0.0,0.0,79,0.00,,,0.00,WUHU216HW,2013-08-31 14:17:00,
2013-08-31 09:22:00,75.9,68.5,29.85,ESE,113,0.0,0.0,78,0.00,,,0.00,WUHU216HW,2013-08-31 14:22:00,
2013-08-31 09:27:00,76.1,68.3,29.85,ESE,113,0.0,0.0,77,0.00,,,0.00,WUHU216HW,2013-08-31 14:27:00,
2013-08-31 09:32:00,76.6,68.8,29.85,SE,135,0.0,0.0,77,0.00,,,0.00,WUHU216HW,2013-08-31 14:32:00,
2013-08-31 09:37:00,76.8,69.0,29.86,SE,135,0.0,0.0,77,0.00,,,0.00,WUHU216HW,2013-08-31 14:37:00,
2013-08-31 09:42:00,77.1,68.9,29.85,South,180,0.0,0.0,76,0.00,,,0.00,WUHU216HW,2013-08-31 14:42:00,
2013-08-31 09:47:00,77.3,69.1,29.85,SE,135,0.0,0.0,76,0.00,,,0.00,WUHU216HW,2013-08-31 14:47:00,
2013-08-31 09:52:00,77.7,69.5,29.85,SE,135,0.0,0.0,76,0.00,,,0.00,WUHU216HW,2013-08-31 14:52:00,
2013-08-31 09:57:00,78.0,69.4,29.84,ESE,113,0.0,0.0,75,0.00,,,0.00,WUHU216HW,2013-08-31 14:57:00,
2013-08-31 10:02:00,78.4,69.8,29.84,SE,135,0.0,0.0,75,0.00,,,0.00,WUHU216HW,2013-08-31 15:02:00,
2013-08-31 10:07:00,78.6,69.5,29.84,SE,135,0.0,0.0,74,0.00,,,0.00,WUHU216HW,2013-08-31 15:07:00,
2013-08-31 10:12:00,78.9,69.9,29.84,ESE,113,0.0,0.0,74,0.00,,,0.00,WUHU216HW,2013-08-31 15:12:00,
2013-08-31 10:17:00,79.3,70.3,29.84,East,90,0.0,0.0,74,0.00,,,0.00,WUHU216HW,2013-08-31 15:17:00,
2013-08-31 10:22:00,79.5,70.0,29.84,SE,135,0.0,0.0,73,0.00,,,0.00,WUHU216HW,2013-08-31 15:22:00,
2013-08-31 10:27:00,79.8,70.4,29.85,SSE,158,0.0,0.0,73,0.00,,,0.00,WUHU216HW,2013-08-31 15:27:00,
2013-08-31 10:32:00,79.5,69.6,29.84,SE,135,0.0,0.0,72,0.00,,,0.00,WUHU216HW,2013-08-31 15:32:00,
2013-08-31 10:37:00,80.0,70.2,29.85,SE,135,0.0,0.0,72,0.00,,,0.00,WUHU216HW,2013-08-31 15:37:00,
2013-08-31 10:42:00,80.4,70.1,29.84,SSE,158,0.0,0.0,71,0.00,,,0.00,WUHU216HW,2013-08-31 15:42:00,
2013-08-31 10:47:00,80.6,70.7,29.84,ESE,113,0.0,0.0,72,0.00,,,0.00,WUHU216HW,2013-08-31 15:47:00,
2013-08-31 10:52:00,80.7,70.5,29.84,East,90,0.0,0.0,71,0.00,,,0.00,WUHU216HW,2013-08-31 15:52:00,
2013-08-31 10:57:00,80.9,70.7,29.84,SSE,158,0.0,0.0,71,0.00,,,0.00,WUHU216HW,2013-08-31 15:57:00,
2013-08-31 11:02:00,81.5,71.1,29.84,ESE,113,0.0,0.0,71,0.00,,,0.00,WUHU216HW,2013-08-31 16:02:00,
2013-08-31 11:07:00,82.2,71.4,29.84,SE,135,0.0,0.0,70,0.00,,,0.00,WUHU216HW,2013-08-31 16:07:00,
2013-08-31 11:12:00,82.5,71.3,29.84,ESE,113,0.0,0.0,69,0.00,,,0.00,WUHU216HW,2013-08-31 16:12:00,
2013-08-31 11:17:00,82.5,71.3,29.84,ESE,113,0.0,0.0,69,0.00,,,0.00,WUHU216HW,2013-08-31 16:17:00,
2013-08-31 11:22:00,82.7,71.5,29.84,SE,135,0.0,0.0,69,0.00,,,0.00,WUHU216HW,2013-08-31 16:22:00,
2013-08-31 11:27:00,83.1,71.4,29.84,SSE,158,0.0,0.0,68,0.00,,,0.00,WUHU216HW,2013-08-31 16:27:00,
2013-08-31 11:32:00,83.1,71.4,29.84,South,180,0.0,0.0,68,0.00,,,0.00,WUHU216HW,2013-08-31 16:32:00,
2013-08-31 11:37:00,84.0,72.3,29.84,South,180,0.0,0.0,68,0.00,,,0.00,WUHU216HW,2013-08-31 16:37:00,
2013-08-31 11:42:00,84.7,72.1,29.84,SSW,203,0.0,0.0,66,0.00,,,0.00,WUHU216HW,2013-08-31 16:42:00,
2013-08-31 11:47:00,85.2,72.1,29.84,SE,135,0.0,0.0,65,0.00,,,0.00,WUHU216HW,2013-08-31 16:47:00,
2013-08-31 11:52:00,86.1,72.5,29.84,WNW,293,0.0,0.0,64,0.00,,,0.00,WUHU216HW,2013-08-31 16:52:00,
2013-08-31 11:57:00,85.8,71.7,29.84,SE,135,0.0,0.0,63,0.00,,,0.00,WUHU216HW,2013-08-31 16:57:00,
2013-08-31 12:02:00,85.8,71.7,29.84,ESE,113,0.0,0.0,63,0.00,,,0.00,WUHU216HW,2013-08-31 17:02:00,
2013-08-31 12:07:00,86.3,71.7,29.84,SSE,158,0.0,0.0,62,0.00,,,0.00,WUHU216HW,2013-08-31 17:07:00,
2013-08-31 12:12:00,86.9,72.3,29.85,SSW,203,0.0,0.0,62,0.00,,,0.00,WUHU216HW,2013-08-31 17:12:00,
2013-08-31 12:17:00,87.6,72.5,29.84,South,180,0.0,0.0,61,0.00,,,0.00,WUHU216HW,2013-08-31 17:17:00,
2013-08-31 12:23:00,88.7,73.5,29.84,SSW,203,0.0,0.0,61,0.00,,,0.00,WUHU216HW,2013-08-31 17:23:00,
2013-08-31 12:28:00,89.4,73.2,29.84,East,90,0.0,0.0,59,0.00,,,0.00,WUHU216HW,2013-08-31 17:28:00,
2013-08-31 12:33:00,89.7,72.4,29.84,NW,315,0.0,0.0,57,0.00,,,0.00,WUHU216HW,2013-08-31 17:33:00,
2013-08-31 12:38:00,87.8,69.6,29.84,WNW,293,0.0,0.0,55,0.00,,,0.00,WUHU216HW,2013-08-31 17:38:00,
2013-08-31 12:43:00,86.7,69.1,29.84,WNW,293,0.0,0.0,56,0.00,,,0.00,WUHU216HW,2013-08-31 17:43:00,
2013-08-31 12:48:00,86.7,69.6,29.84,NW,315,0.0,0.0,57,0.00,,,0.00,WUHU216HW,2013-08-31 17:48:00,
2013-08-31 12:53:00,88.3,71.7,29.84,SSW,203,0.0,0.0,58,0.00,,,0.00,WUHU216HW,2013-08-31 17:53:00,
2013-08-31 12:58:00,89.4,72.6,29.84,SW,225,0.0,0.0,58,0.00,,,0.00,WUHU216HW,2013-08-31 17:58:00,
2013-08-31 13:03:00,90.5,72.5,29.84,SW,225,0.0,0.0,56,0.00,,,0.00,WUHU216HW,2013-08-31 18:03:00,
2013-08-31 13:08:00,90.3,71.8,29.84,SW,225,0.0,0.0,55,0.00,,,0.00,WUHU216HW,2013-08-31 18:08:00,
2013-08-31 13:13:00,90.3,71.8,29.84,ESE,113,0.0,0.0,55,0.00,,,0.00,WUHU216HW,2013-08-31 18:13:00,
2013-08-31 13:18:00,89.7,71.4,29.84,South,180,0.0,0.0,55,0.00,,,0.00,WUHU216HW,2013-08-31 18:18:00,
2013-08-31 13:23:00,88.3,69.5,29.83,WSW,248,0.0,0.0,54,0.00,,,0.00,WUHU216HW,2013-08-31 18:23:00,
2013-08-31 13:28:00,88.3,70.1,29.83,South,180,0.0,0.0,55,0.00,,,0.00,WUHU216HW,2013-08-31 18:28:00,
2013-08-31 13:33:00,88.7,70.9,29.83,SSW,203,0.0,0.0,56,0.00,,,0.00,WUHU216HW,2013-08-31 18:33:00,
2013-08-31 13:38:00,89.4,71.6,29.83,South,180,0.0,0.0,56,0.00,,,0.00,WUHU216HW,2013-08-31 18:38:00,
2013-08-31 13:43:00,89.9,72.1,29.83,West,270,0.0,0.0,56,0.00,,,0.00,WUHU216HW,2013-08-31 18:43:00,
2013-08-31 13:48:00,89.7,71.9,29.83,SW,225,0.0,0.0,56,0.00,,,0.00,WUHU216HW,2013-08-31 18:48:00,
2013-08-31 13:53:00,89.7,71.9,29.83,SE,135,0.0,0.0,56,0.00,,,0.00,WUHU216HW,2013-08-31 18:53:00,
2013-08-31 13:58:00,89.9,72.6,29.83,SE,135,0.0,0.0,57,0.00,,,0.00,WUHU216HW,2013-08-31 18:58:00,
2013-08-31 14:03:00,90.1,72.9,29.83,SSW,203,0.0,0.0,57,0.00,,,0.00,WUHU216HW,2013-08-31 19:03:00,
2013-08-31 14:08:00,90.6,72.7,29.83,SSW,203,0.0,0.0,56,0.00,,,0.00,WUHU216HW,2013-08-31 19:08:00,
2013-08-31 14:13:00,91.2,72.6,29.83,South,180,0.0,0.0,55,0.00,,,0.00,WUHU216HW,2013-08-31 19:13:00,
2013-08-31 14:18:00,90.6,72.1,29.83,ESE,113,0.0,0.0,54,0.00,,,0.00,WUHU216HW,2013-08-31 19:18:00,
2013-08-31 14:23:00,89.7,70.8,29.83,SE,135,0.0,0.0,54,0.00,,,0.00,WUHU216HW,2013-08-31 19:23:00,
2013-08-31 14:28:00,89.7,71.9,29.82,South,180,0.0,0.0,56,0.00,,,0.00,WUHU216HW,2013-08-31 19:28:00,
2013-08-31 14:33:00,90.6,72.2,29.82,SSW,203,0.0,0.0,55,0.00,,,0.00,WUHU216HW,2013-08-31 19:33:00,
2013-08-31 14:38:00,91.2,72.6,29.82,South,180,0.0,0.0,55,0.00,,,0.00,WUHU216HW,2013-08-31 19:38:00,
2013-08-31 14:43:00,91.2,72.1,29.82,SSE,158,0.0,0.0,54,0.00,,,0.00,WUHU216HW,2013-08-31 19:43:00,
2013-08-31 14:48:00,90.3,71.8,29.82,SE,135,0.0,0.0,55,0.00,,,0.00,WUHU216HW,2013-08-31 19:48:00,
2013-08-31 14:53:00,90.3,71.8,29.81,SE,135,0.0,0.0,55,0.00,,,0.00,WUHU216HW,2013-08-31 19:53:00,
2013-08-31 14:58:00,90.5,72.0,29.81,SSW,203,0.0,0.0,55,0.00,,,0.00,WUHU216HW,2013-08-31 19:58:00,
2013-08-31 15:03:00,90.3,71.5,29.81,SW,225,0.0,0.0,54,0.00,,,0.00,WUHU216HW,2013-08-31 20:03:00,
2013-08-31 15:08:00,90.5,72.0,29.81,SW,225,0.0,0.0,55,0.00,,,0.00,WUHU216HW,2013-08-31 20:08:00,
2013-08-31 15:13:00,90.6,71.6,29.81,SE,135,0.0,0.0,54,0.00,,,0.00,WUHU216HW,2013-08-31 20:13:00,
2013-08-31 15:18:00,91.0,71.9,29.81,SE,135,0.0,0.0,54,0.00,,,0.00,WUHU216HW,2013-08-31 20:18:00,
2013-08-31 15:23:00,91.2,72.1,29.81,NW,315,0.0,0.0,54,0.00,,,0.00,WUHU216HW,2013-08-31 20:23:00,
2013-08-31 15:28:00,91.2,71.6,29.81,ESE,113,0.0,0.0,53,0.00,,,0.00,WUHU216HW,2013-08-31 20:28:00,
2013-08-31 15:33:00,90.8,71.8,29.81,SW,225,0.0,0.0,54,0.00,,,0.00,WUHU216HW,2013-08-31 20:33:00,
2013-08-31 15:38:00,91.2,71.6,29.81,South,180,0.0,0.0,53,0.00,,,0.00,WUHU216HW,2013-08-31 20:38:00,
2013-08-31 15:43:00,91.2,72.1,29.81,SSE,158,0.0,0.0,54,0.00,,,0.00,WUHU216HW,2013-08-31 20:43:00,
2013-08-31 15:48:00,91.2,72.1,29.81,West,270,0.0,0.0,54,0.00,,,0.00,WUHU216HW,2013-08-31 20:48:00,
2013-08-31 15:53:00,91.2,71.6,29.80,South,180,0.0,0.0,53,0.00,,,0.00,WUHU216HW,2013-08-31 20:53:00,
2013-08-31 15:58:00,91.2,72.1,29.80,South,180,0.0,0.0,54,0.00,,,0.00,WUHU216HW,2013-08-31 20:58:00,
2013-08-31 16:03:00,91.0,71.9,29.80,SSE,158,0.0,0.0,54,0.00,,,0.00,WUHU216HW,2013-08-31 21:03:00,
2013-08-31 16:08:00,90.6,71.6,29.80,SSE,158,0.0,0.0,54,0.00,,,0.00,WUHU216HW,2013-08-31 21:08:00,
2013-08-31 16:13:00,90.3,71.3,29.80,SE,135,0.0,0.0,54,0.00,,,0.00,WUHU216HW,2013-08-31 21:13:00,
2013-08-31 16:18:00,90.1,71.7,29.80,SE,135,0.0,0.0,55,0.00,,,0.00,WUHU216HW,2013-08-31 21:18:00,
2013-08-31 16:23:00,90.3,71.8,29.80,South,180,0.0,0.0,55,0.00,,,0.00,WUHU216HW,2013-08-31 21:23:00,
2013-08-31 16:28:00,90.5,72.0,29.80,SSE,158,0.0,0.0,55,0.00,,,0.00,WUHU216HW,2013-08-31 21:28:00,
2013-08-31 16:33:00,90.3,71.8,29.80,SSE,158,0.0,0.0,55,0.00,,,0.00,WUHU216HW,2013-08-31 21:33:00,
2013-08-31 16:38:00,90.1,71.7,29.79,SW,225,0.0,0.0,55,0.00,,,0.00,WUHU216HW,2013-08-31 21:38:00,
2013-08-31 16:43:00,90.1,71.7,29.79,SSW,203,0.0,0.0,55,0.00,,,0.00,WUHU216HW,2013-08-31 21:43:00,
2013-08-31 16:48:00,90.1,71.7,29.79,South,180,0.0,0.0,55,0.00,,,0.00,WUHU216HW,2013-08-31 21:48:00,
2013-08-31 16:53:00,89.9,71.5,29.78,SSE,158,0.0,0.0,55,0.00,,,0.00,WUHU216HW,2013-08-31 21:53:00,
2013-08-31 16:58:00,89.9,71.5,29.77,SSW,203,0.0,0.0,55,0.00,,,0.00,WUHU216HW,2013-08-31 21:58:00,
2013-08-31 17:03:00,89.9,71.5,29.77,SSE,158,0.0,0.0,55,0.00,,,0.00,WUHU216HW,2013-08-31 22:03:00,
2013-08-31 17:08:00,89.4,71.6,29.77,SSE,158,0.0,0.0,56,0.00,,,0.00,WUHU216HW,2013-08-31 22:08:00,
2013-08-31 17:13:00,88.8,71.6,29.77,SE,135,0.0,0.0,57,0.00,,,0.00,WUHU216HW,2013-08-31 22:13:00,
2013-08-31 17:18:00,88.7,71.5,29.77,SSW,203,0.0,0.0,57,0.00,,,0.00,WUHU216HW,2013-08-31 22:18:00,
2013-08-31 17:23:00,88.5,71.8,29.77,SSE,158,0.0,0.0,58,0.00,,,0.00,WUHU216HW,2013-08-31 22:23:00,
2013-08-31 17:28:00,88.5,71.3,29.76,SSE,158,0.0,0.0,57,0.00,,,0.00,WUHU216HW,2013-08-31 22:28:00,
2013-08-31 17:33:00,87.9,70.8,29.75,South,180,0.0,0.0,57,0.00,,,0.00,WUHU216HW,2013-08-31 22:33:00,
2013-08-31 17:38:00,87.4,70.8,29.75,SE,135,0.0,0.0,58,0.00,,,0.00,WUHU216HW,2013-08-31 22:38:00,
2013-08-31 17:43:00,86.7,70.7,29.75,SE,135,0.0,0.0,59,0.00,,,0.00,WUHU216HW,2013-08-31 22:43:00,
2013-08-31 17:48:00,85.6,70.1,29.77,SSE,158,0.0,0.0,60,0.00,,,0.00,WUHU216HW,2013-08-31 22:48:00,
2013-08-31 17:53:00,85.1,70.1,29.77,South,180,0.0,0.0,61,0.00,,,0.00,WUHU216HW,2013-08-31 22:53:00,
2013-08-31 17:58:00,84.5,69.6,29.78,SSW,203,0.0,0.0,61,0.00,,,0.00,WUHU216HW,2013-08-31 22:58:00,
2013-08-31 18:03:00,84.0,69.6,29.78,SSW,203,0.0,0.0,62,0.00,,,0.00,WUHU216HW,2013-08-31 23:03:00,
2013-08-31 18:08:00,83.8,69.8,29.79,South,180,0.0,0.0,63,0.00,,,0.00,WUHU216HW,2013-08-31 23:08:00,
2013-08-31 18:13:00,83.6,70.1,29.79,SSE,158,0.0,0.0,64,0.00,,,0.00,WUHU216HW,2013-08-31 23:13:00,
2013-08-31 18:18:00,83.1,70.0,29.78,SSE,158,0.0,0.0,65,0.00,,,0.00,WUHU216HW,2013-08-31 23:18:00,
2013-08-31 18:23:00,82.5,69.9,29.78,SSE,158,0.0,0.0,66,0.00,,,0.00,WUHU216HW,2013-08-31 23:23:00,
2013-08-31 18:28:00,82.2,69.6,29.79,South,180,0.0,0.0,66,0.00,,,0.00,WUHU216HW,2013-08-31 23:28:00,
2013-08-31 18:33:00,81.8,69.6,29.78,SSE,158,0.0,0.0,66,0.00,,,0.00,WUHU216HW,2013-08-31 23:33:00,
2013-08-31 18:38:00,81.3,69.2,29.78,SSE,158,0.0,0.0,67,0.00,,,0.00,WUHU216HW,2013-08-31 23:38:00,
2013-08-31 18:43:00,80.9,69.4,29.79,SSE,158,0.0,0.0,68,0.00,,,0.00,WUHU216HW,2013-08-31 23:43:00,
2013-08-31 18:48:00,80.2,68.7,29.79,SSE,158,0.0,0.0,68,0.00,,,0.00,WUHU216HW,2013-08-31 23:48:00,
2013-08-31 18:53:00,79.5,68.9,29.79,SSE,158,0.0,0.0,70,0.00,,,0.00,WUHU216HW,2013-08-31 23:53:00,
2013-08-31 18:58:00,78.8,68.1,29.80,SSE,158,0.0,0.0,70,0.00,,,0.00,WUHU216HW,2013-08-31 23:58:00,
2013-08-31 19:03:00,78.4,68.2,29.81,SSE,158,0.0,0.0,71,0.00,,,0.00,WUHU216HW,2013-09-01 00:03:00,
2013-08-31 19:08:00,77.7,68.1,29.82,SSE,158,0.0,0.0,72,0.00,,,0.00,WUHU216HW,2013-09-01 00:08:00,
2013-08-31 19:13:00,77.3,68.0,29.81,SSE,158,0.0,0.0,73,0.00,,,0.00,WUHU216HW,2013-09-01 00:13:00,
2013-08-31 19:18:00,77.0,67.6,29.81,SSE,158,0.0,0.0,73,0.00,,,0.00,WUHU216HW,2013-09-01 00:18:00,
2013-08-31 19:23:00,76.6,66.9,29.82,SSE,158,0.0,0.0,73,0.00,,,0.00,WUHU216HW,2013-09-01 00:23:00,
2013-08-31 19:28:00,75.9,66.6,29.82,SSE,158,0.0,0.0,73,0.00,,,0.00,WUHU216HW,2013-09-01 00:28:00,
2013-08-31 19:33:00,75.5,67.0,29.82,SSE,158,0.0,0.0,75,0.00,,,0.00,WUHU216HW,2013-09-01 00:33:00,
2013-08-31 19:38:00,75.3,67.2,29.84,SW,225,0.0,0.0,76,0.00,,,0.00,WUHU216HW,2013-09-01 00:38:00,
2013-08-31 19:43:00,75.5,68.2,29.84,NW,315,0.0,0.0,78,0.00,,,0.00,WUHU216HW,2013-09-01 00:43:00,
2013-08-31 19:48:00,75.9,68.5,29.84,NW,315,0.0,0.0,78,0.00,,,0.00,WUHU216HW,2013-09-01 00:48:00,
2013-08-31 19:53:00,76.1,68.7,29.84,NW,315,0.0,0.0,78,0.00,,,0.00,WUHU216HW,2013-09-01 00:53:00,
2013-08-31 19:58:00,76.2,68.9,29.85,NW,315,0.0,0.0,78,0.00,,,0.00,WUHU216HW,2013-09-01 00:58:00,
2013-08-31 20:03:00,76.6,69.2,29.85,NW,315,0.0,0.0,78,0.00,,,0.00,WUHU216HW,2013-09-01 01:03:00,
2013-08-31 20:08:00,76.8,69.4,29.85,NW,315,0.0,0.0,78,0.00,,,0.00,WUHU216HW,2013-09-01 01:08:00,
2013-08-31 20:13:00,76.8,69.0,29.85,NW,315,0.0,0.0,77,0.00,,,0.00,WUHU216HW,2013-09-01 01:13:00,
2013-08-31 20:18:00,76.6,68.8,29.86,West,270,0.0,0.0,77,0.00,,,0.00,WUHU216HW,2013-09-01 01:18:00,
2013-08-31 20:23:00,76.2,68.9,29.87,WNW,293,0.0,0.0,78,0.00,,,0.00,WUHU216HW,2013-09-01 01:23:00,
2013-08-31 20:28:00,76.2,69.2,29.87,WNW,293,0.0,0.0,79,0.00,,,0.00,WUHU216HW,2013-09-01 01:28:00,
2013-08-31 20:33:00,76.2,69.2,29.87,NW,315,0.0,0.0,79,0.00,,,0.00,WUHU216HW,2013-09-01 01:33:00,
2013-08-31 20:38:00,76.2,69.2,29.88,NW,315,0.0,0.0,79,0.00,,,0.00,WUHU216HW,2013-09-01 01:38:00,
2013-08-31 20:43:00,75.3,68.4,29.88,NW,315,0.0,0.0,79,0.00,,,0.00,WUHU216HW,2013-09-01 01:43:00,
2013-08-31 20:48:00,74.8,68.3,29.89,NW,315,0.0,0.0,80,0.00,,,0.00,WUHU216HW,2013-09-01 01:48:00,
2013-08-31 20:53:00,73.9,66.6,29.89,WSW,248,0.0,0.0,78,0.00,,,0.00,WUHU216HW,2013-09-01 01:53:00,
2013-08-31 20:58:00,73.0,65.8,29.90,NW,315,0.0,0.0,78,0.00,,,0.00,WUHU216HW,2013-09-01 01:58:00,
2013-08-31 21:03:00,71.6,64.3,29.90,NW,315,0.0,0.0,78,0.00,,,0.00,WUHU216HW,2013-09-01 02:03:00,
2013-08-31 21:08:00,70.3,63.1,29.89,North,0,0.0,0.0,78,0.04,,,0.02,WUHU216HW,2013-09-01 02:08:00,
2013-08-31 21:13:00,69.0,62.6,29.88,NNE,23,0.0,0.0,80,0.04,,,0.05,WUHU216HW,2013-09-01 02:13:00,
2013-08-31 21:18:00,68.5,62.5,29.87,NE,45,0.0,0.0,81,0.06,,,0.07,WUHU216HW,2013-09-01 02:18:00,
2013-08-31 21:23:00,68.1,62.5,29.83,East,90,0.0,0.0,82,0.06,,,0.07,WUHU216HW,2013-09-01 02:23:00,
2013-08-31 21:28:00,68.1,62.8,29.81,ESE,113,0.0,0.0,83,0.06,,,0.07,WUHU216HW,2013-09-01 02:28:00,
2013-08-31 21:33:00,68.0,62.9,29.80,ESE,113,0.0,0.0,84,0.06,,,0.07,WUHU216HW,2013-09-01 02:33:00,
2013-08-31 21:38:00,68.1,63.1,29.81,North,0,0.0,0.0,84,0.06,,,0.07,WUHU216HW,2013-09-01 02:38:00,
2013-08-31 21:43:00,68.0,62.9,29.80,NNE,23,0.0,0.0,84,0.06,,,0.07,WUHU216HW,2013-09-01 02:43:00,
2013-08-31 21:48:00,68.1,63.1,29.80,SSE,158,0.0,0.0,84,0.06,,,0.07,WUHU216HW,2013-09-01 02:48:00,
2013-08-31 21:53:00,67.8,62.8,29.79,NNE,23,0.0,0.0,84,0.08,,,0.09,WUHU216HW,2013-09-01 02:53:00,
2013-08-31 21:58:00,67.6,62.6,29.79,NE,45,0.0,0.0,84,0.08,,,0.09,WUHU216HW,2013-09-01 02:58:00,
2013-08-31 22:03:00,67.2,62.2,29.78,East,90,0.0,0.0,84,0.08,,,0.09,WUHU216HW,2013-09-01 03:03:00,
2013-08-31 22:08:00,66.9,61.9,29.77,East,90,0.0,0.0,84,0.06,,,0.09,WUHU216HW,2013-09-01 03:08:00,
2013-08-31 22:13:00,66.7,61.7,29.77,ESE,113,0.0,0.0,84,0.04,,,0.09,WUHU216HW,2013-09-01 03:13:00,
2013-08-31 22:18:00,66.5,61.5,29.76,ESE,113,0.0,0.0,84,0.02,,,0.09,WUHU216HW,2013-09-01 03:18:00,
2013-08-31 22:23:00,66.3,61.7,29.76,SE,135,0.0,0.0,85,0.02,,,0.09,WUHU216HW,2013-09-01 03:23:00,
2013-08-31 22:28:00,66.2,61.8,29.75,ESE,113,0.0,0.0,86,0.02,,,0.09,WUHU216HW,2013-09-01 03:28:00,
2013-08-31 22:33:00,66.0,61.6,29.75,ESE,113,0.0,0.0,86,0.02,,,0.09,WUHU216HW,2013-09-01 03:33:00,
2013-08-31 22:38:00,66.0,61.9,29.74,SE,135,0.0,0.0,87,0.02,,,0.09,WUHU216HW,2013-09-01 03:38:00,
2013-08-31 22:43:00,66.0,61.9,29.75,SE,135,0.0,0.0,87,0.02,,,0.09,WUHU216HW,2013-09-01 03:43:00,
2013-08-31 22:48:00,66.0,61.9,29.74,SSE,158,0.0,0.0,87,0.02,,,0.09,WUHU216HW,2013-09-01 03:48:00,
2013-08-31 22:53:00,66.0,61.9,29.74,SW,225,0.0,0.0,87,0.00,,,0.09,WUHU216HW,2013-09-01 03:53:00,
2013-08-31 22:58:00,65.6,61.6,29.74,SW,225,0.0,0.0,87,0.00,,,0.09,WUHU216HW,2013-09-01 03:58:00,
2013-08-31 23:01:00,65.8,61.8,29.74,South,180,0.0,0.0,87,0.00,,,0.09,WUHU216HW,2013-09-01 04:01:00,
2013-08-31 23:03:00,65.6,61.6,29.74,SSE,158,0.0,0.0,87,0.00,,,0.09,WUHU216HW,2013-09-01 04:03:00,
2013-08-31 23:08:00,65.4,61.4,29.74,SSE,158,0.0,0.0,87,0.00,,,0.09,WUHU216HW,2013-09-01 04:08:00,
2013-08-31 23:13:00,65.6,61.6,29.74,NNW,338,0.0,0.0,87,0.00,,,0.09,WUHU216HW,2013-09-01 04:13:00,
2013-08-31 23:18:00,65.8,62.1,29.74,NW,315,0.0,0.0,88,0.00,,,0.09,WUHU216HW,2013-09-01 04:18:00,
2013-08-31 23:23:00,65.6,61.6,29.74,SW,225,0.0,0.0,87,0.00,,,0.09,WUHU216HW,2013-09-01 04:23:00,
2013-08-31 23:28:00,65.4,61.4,29.74,SW,225,0.0,0.0,87,0.00,,,0.09,WUHU216HW,2013-09-01 04:28:00,
2013-08-31 23:33:00,65.3,61.6,29.75,SSW,203,0.0,0.0,88,0.00,,,0.09,WUHU216HW,2013-09-01 04:33:00,
2013-08-31 23:38:00,65.3,61.6,29.76,South,180,0.0,0.0,88,0.00,,,0.09,WUHU216HW,2013-09-01 04:38:00,
2013-08-31 23:43:00,65.4,61.8,29.76,SSW,203,0.0,0.0,88,0.00,,,0.09,WUHU216HW,2013-09-01 04:43:00,
2013-08-31 23:48:00,66.0,62.6,29.75,SSW,203,0.0,0.0,89,0.00,,,0.09,WUHU216HW,2013-09-01 04:48:00,
2013-08-31 23:53:00,66.3,62.9,29.76,SSW,203,0.0,0.0,89,0.00,,,0.09,WUHU216HW,2013-09-01 04:53:00,
2013-08-31 23:58:00,66.3,62.9,29.76,SW,225,0.0,0.0,89,0.00,,,0.09,WUHU216HW,2013-09-01 04:58:00,